Time;durP1;ratioP1;P1;durP2;ratioP2;P2;SDS_P1;SDS_P2;PMS_P1;PMS_P2;Temp;Humidity;BMP_temperature;BMP_pressure;BME280_temperature;BME280_humidity;BME280_pressure;Samples;Min_cycle;Max_cycle;Signal;HPM_P1;HPM_P2
2023/04/26 00:00:29;;;;;;;;;;;;;;;9.43;90.53;94295.28;5052897;28;1046;-52
2023/04/26 00:02:55;;;;;;;;;;;;;;;9.44;91.10;94299.59;5053241;28;1012;-52
2023/04/26 00:05:21;;;;;;;;;;;;;;;9.38;91.35;94303.78;5053176;28;1016;-52
2023/04/26 00:07:49;;;;;;;;;;;;;;;9.41;89.44;94302.63;5052975;28;1856;-52
2023/04/26 00:10:15;;;;;;;;;;;;;;;9.22;88.89;94303.03;5052869;28;1409;-52
2023/04/26 00:12:41;;;;;;;;;;;;;;;8.78;89.15;94286.56;5053256;28;968;-51
2023/04/26 00:15:08;;;;;;;;;;;;;;;8.63;90.85;94280.25;5052846;28;1906;-52
2023/04/26 00:17:34;;;;;;;;;;;;;;;8.75;90.51;94286.88;5053094;28;973;-52
2023/04/26 00:20:00;;;;;;;;;;;;;;;8.77;90.74;94290.22;5053137;28;1077;-52
2023/04/26 00:22:26;;;;;;;;;;;;;;;8.79;90.81;94293.53;5052693;28;1287;-52
2023/04/26 00:24:52;;;;;;;;;;;;;;;8.59;89.90;94297.56;5053151;28;1048;-52
2023/04/26 00:27:18;;;;;;;;;;;;;;;8.34;90.28;94289.59;5052812;28;1036;-51
2023/04/26 00:29:44;;;;;;;;;;;;;;;8.38;90.74;94292.75;5052993;28;1028;-52
2023/04/26 00:32:10;;;;;;;;;;;;;;;8.54;90.89;94291.94;5052913;28;969;-52
2023/04/26 00:34:37;;;;;;;;;;;;;;;8.64;90.94;94275.75;5052904;28;1913;-51
2023/04/26 00:37:04;;;;;;;;;;;;;;;8.66;89.59;94276.41;5051850;28;1012;-52
2023/04/26 00:39:30;;;;;;;;;;;;;;;8.79;90.65;94277.53;5052760;28;1047;-52
2023/04/26 00:41:56;;;;;;;;;;;;;;;8.87;91.17;94282.00;5052608;28;1782;-52
2023/04/26 00:44:22;;;;;;;;;;;;;;;8.83;90.96;94278.03;5052520;28;1312;-52
2023/04/26 00:46:50;;;;;;;;;;;;;;;8.50;89.46;94279.94;5052854;28;1039;-52
2023/04/26 00:49:17;;;;;;;;;;;;;;;8.45;90.47;94274.31;5052770;28;1379;-52
2023/04/26 00:51:43;;;;;;;;;;;;;;;8.50;90.49;94267.47;5053036;28;1013;-52
2023/04/26 00:54:10;;;;;;;;;;;;;;;8.31;90.48;94263.31;5054446;28;1988;-52
2023/04/26 00:56:37;;;;;;;;;;;;;;;8.46;90.65;94254.66;5056306;28;1019;-52
2023/04/26 00:59:03;;;;;;;;;;;;;;;8.59;91.13;94262.94;5056399;28;1029;-51
2023/04/26 01:01:29;;;;;;;;;;;;;;;8.44;92.91;94268.13;5056363;28;1283;-52
2023/04/26 01:03:55;;;;;;;;;;;;;;;8.43;92.27;94265.66;5056124;28;1033;-52
2023/04/26 01:06:22;;;;;;;;;;;;;;;8.48;91.84;94260.63;5055970;28;1116;-52
2023/04/26 01:08:52;;;;;;;;;;;;;;;8.57;91.31;94259.63;5056086;28;993;-52
2023/04/26 01:11:21;;;;;;;;;;;;;;;8.46;90.86;94249.31;5056106;28;997;-51
2023/04/26 01:13:50;;;;;;;;;;;;;;;8.39;92.56;94252.63;5055805;28;1910;-51
2023/04/26 01:16:18;;;;;;;;;;;;;;;8.60;93.30;94256.63;5055978;28;969;-52
2023/04/26 01:18:49;;;;;;;;;;;;;;;8.70;91.98;94261.75;5055884;28;1063;-52
2023/04/26 01:21:20;;;;;;;;;;;;;;;8.75;91.95;94265.56;5055853;28;1024;-52
2023/04/26 01:23:47;;;;;;;;;;;;;;;8.94;92.60;94272.31;5055823;28;973;-52
2023/04/26 01:26:13;;;;;;;;;;;;;;;9.09;92.40;94267.09;5055558;28;1984;-52
2023/04/26 01:28:40;;;;;;;;;;;;;;;9.18;92.15;94275.88;5055666;28;1046;-52
2023/04/26 01:31:06;;;;;;;;;;;;;;;9.18;92.19;94283.88;5055586;28;1037;-52
2023/04/26 01:33:32;;;;;;;;;;;;;;;9.23;92.66;94286.03;5055655;28;1059;-52
2023/04/26 01:35:58;;;;;;;;;;;;;;;9.28;91.82;94281.84;5055467;28;1906;-52
2023/04/26 01:38:24;;;;;;;;;;;;;;;9.10;91.23;94275.94;5055317;28;1033;-52
2023/04/26 01:40:50;;;;;;;;;;;;;;;8.87;92.27;94274.00;5054208;28;1548;-52
2023/04/26 01:43:19;;;;;;;;;;;;;;;8.63;93.83;94269.59;5055288;28;1204;-52
2023/04/26 01:45:46;;;;;;;;;;;;;;;8.60;94.65;94256.63;5055471;28;1016;-52
2023/04/26 01:48:13;;;;;;;;;;;;;;;8.69;95.37;94250.28;5055484;28;977;-52
2023/04/26 01:50:39;;;;;;;;;;;;;;;8.89;94.95;94247.19;5055217;28;1294;-52
2023/04/26 01:53:05;;;;;;;;;;;;;;;9.12;93.72;94249.91;5055420;28;1031;-52
2023/04/26 01:55:32;;;;;;;;;;;;;;;9.31;92.91;94251.31;5054972;28;1902;-52
2023/04/26 01:57:58;;;;;;;;;;;;;;;9.40;92.82;94252.94;5055356;28;1045;-52
2023/04/26 02:00:25;;;;;;;;;;;;;;;9.43;92.69;94254.41;5055003;28;1029;-52
2023/04/26 02:02:55;;;;;;;;;;;;;;;9.31;93.08;94253.97;5055114;28;1072;-52
2023/04/26 02:05:21;;;;;;;;;;;;;;;9.11;93.46;94246.44;5054641;28;1021;-52
2023/04/26 02:07:47;;;;;;;;;;;;;;;9.30;93.49;94252.34;5055122;28;1025;-52
2023/04/26 02:10:13;;;;;;;;;;;;;;;9.31;94.64;94249.47;5054812;28;1056;-52
2023/04/26 02:12:39;;;;;;;;;;;;;;;9.31;96.01;94257.47;5055043;28;1020;-52
2023/04/26 02:15:05;;;;;;;;;;;;;;;9.22;95.48;94249.69;5054700;28;1910;-52
2023/04/26 02:17:31;;;;;;;;;;;;;;;9.44;92.03;94242.75;5054763;28;961;-52
2023/04/26 02:19:57;;;;;;;;;;;;;;;9.44;94.08;94245.41;5054733;28;977;-52
2023/04/26 02:22:26;;;;;;;;;;;;;;;9.34;95.51;94240.31;5054464;28;1029;-52
2023/04/26 02:24:52;;;;;;;;;;;;;;;9.30;95.92;94239.00;5054851;28;1049;-52
2023/04/26 02:27:18;;;;;;;;;;;;;;;9.42;95.79;94239.44;5054753;28;1020;-52
2023/04/26 02:29:45;;;;;;;;;;;;;;;9.58;94.18;94239.34;5054782;28;1024;-52
2023/04/26 02:32:12;;;;;;;;;;;;;;;9.72;93.64;94249.22;5054319;28;1034;-52
2023/04/26 02:34:38;;;;;;;;;;;;;;;9.77;94.22;94235.38;5054259;28;1914;-52
2023/04/26 02:37:04;;;;;;;;;;;;;;;9.78;93.14;94235.16;5054364;28;989;-52
2023/04/26 02:39:30;;;;;;;;;;;;;;;9.83;91.75;94239.16;5054436;28;966;-52
2023/04/26 02:41:56;;;;;;;;;;;;;;;9.80;92.56;94231.50;5054499;28;1604;-52
2023/04/26 02:44:22;;;;;;;;;;;;;;;9.80;92.30;94234.16;5054012;28;1414;-52
2023/04/26 02:46:48;;;;;;;;;;;;;;;9.74;92.69;94230.38;5054286;28;981;-52
2023/04/26 02:49:15;;;;;;;;;;;;;;;9.66;93.72;94235.78;5054030;28;1044;-52
2023/04/26 02:51:41;;;;;;;;;;;;;;;9.49;94.16;94224.38;5053933;28;1081;-52
2023/04/26 02:54:07;;;;;;;;;;;;;;;9.46;95.12;94222.06;5054114;28;1981;-52
2023/04/26 02:56:33;;;;;;;;;;;;;;;9.40;94.43;94215.59;5054143;28;1036;-52
2023/04/26 02:58:59;;;;;;;;;;;;;;;9.50;95.13;94228.69;5054217;28;1009;-52
2023/04/26 03:01:25;;;;;;;;;;;;;;;9.65;94.57;94229.59;5053937;28;1032;-52
2023/04/26 03:03:51;;;;;;;;;;;;;;;9.71;91.76;94225.38;5054008;28;1028;-52
2023/04/26 03:06:17;;;;;;;;;;;;;;;9.59;93.27;94227.63;5053582;28;1029;-52
2023/04/26 03:08:43;;;;;;;;;;;;;;;9.70;93.65;94231.75;5054027;28;961;-52
2023/04/26 03:11:10;;;;;;;;;;;;;;;9.83;93.68;94226.63;5053951;28;1032;-52
2023/04/26 03:13:36;;;;;;;;;;;;;;;9.82;92.98;94232.97;5053728;28;1167;-52
2023/04/26 03:16:02;;;;;;;;;;;;;;;9.79;93.56;94238.69;5053173;28;1973;-52
2023/04/26 03:18:28;;;;;;;;;;;;;;;9.75;93.27;94232.00;5053448;28;1041;-52
2023/04/26 03:20:54;;;;;;;;;;;;;;;9.61;94.31;94230.13;5053414;28;1034;-53
2023/04/26 03:23:23;;;;;;;;;;;;;;;9.62;94.73;94245.13;5053433;28;985;-52
2023/04/26 03:25:49;;;;;;;;;;;;;;;9.51;94.49;94235.72;5053715;28;1039;-52
2023/04/26 03:28:15;;;;;;;;;;;;;;;9.37;96.91;94238.13;5053334;28;1108;-52
2023/04/26 03:30:41;;;;;;;;;;;;;;;9.38;96.16;94231.75;5053377;28;1037;-52
2023/04/26 03:33:08;;;;;;;;;;;;;;;9.41;95.93;94235.09;5053360;28;1251;-52
2023/04/26 03:35:34;;;;;;;;;;;;;;;9.33;95.52;94235.97;5053368;28;1910;-55
2023/04/26 03:38:00;;;;;;;;;;;;;;;9.35;95.80;94239.28;5053356;28;1045;-54
2023/04/26 03:43:48;;;;;;;;;;;;;;;9.29;95.26;94238.16;5029333;28;1411;-54
2023/04/26 03:46:14;;;;;;;;;;;;;;;9.48;94.57;94247.53;5033245;28;1073;-54
2023/04/26 03:48:42;;;;;;;;;;;;;;;9.61;93.82;94243.47;5033217;28;1124;-54
2023/04/26 03:51:08;;;;;;;;;;;;;;;9.52;93.09;94243.53;5033548;28;1058;-54
2023/04/26 03:53:34;;;;;;;;;;;;;;;9.51;94.38;94241.88;5033350;28;962;-52
2023/04/26 03:56:00;;;;;;;;;;;;;;;9.52;93.74;94248.88;5033253;28;1963;-52
2023/04/26 03:58:26;;;;;;;;;;;;;;;9.56;95.12;94233.31;5033464;28;968;-52
2023/04/26 04:00:55;;;;;;;;;;;;;;;9.73;94.89;94247.38;5033136;28;1057;-52
2023/04/26 04:03:21;;;;;;;;;;;;;;;9.78;94.17;94239.66;5033272;28;1000;-52
2023/04/26 04:05:47;;;;;;;;;;;;;;;9.78;93.58;94234.34;5033303;28;1017;-52
2023/04/26 04:08:14;;;;;;;;;;;;;;;9.80;94.03;94234.97;5033054;28;1873;-52
2023/04/26 04:10:41;;;;;;;;;;;;;;;9.77;93.74;94235.38;5033201;28;1072;-52
2023/04/26 04:13:07;;;;;;;;;;;;;;;9.80;94.20;94232.31;5033160;28;1052;-51
2023/04/26 04:15:33;;;;;;;;;;;;;;;9.83;93.65;94242.66;5033110;28;1965;-52
2023/04/26 04:17:59;;;;;;;;;;;;;;;9.80;93.75;94239.50;5033157;28;1031;-52
2023/04/26 04:20:25;;;;;;;;;;;;;;;9.77;94.60;94238.03;5033116;28;966;-52
2023/04/26 04:22:52;;;;;;;;;;;;;;;9.74;95.42;94241.88;5032987;28;1089;-54
2023/04/26 04:25:20;;;;;;;;;;;;;;;9.57;95.84;94246.50;5032911;28;1896;-56
2023/04/26 04:27:46;;;;;;;;;;;;;;;9.56;96.25;94244.84;5034810;28;1049;-55
2023/04/26 04:30:12;;;;;;;;;;;;;;;9.69;95.84;94248.75;5036758;28;1747;-55
2023/04/26 04:32:38;;;;;;;;;;;;;;;9.75;94.76;94248.88;5036917;28;1033;-56
2023/04/26 04:35:06;;;;;;;;;;;;;;;9.76;94.80;94250.53;5036826;28;1983;-54
2023/04/26 04:37:32;;;;;;;;;;;;;;;9.71;95.07;94252.91;5036742;28;997;-56
2023/04/26 04:39:58;;;;;;;;;;;;;;;9.67;95.63;94243.56;5037010;28;1045;-55
2023/04/26 04:42:26;;;;;;;;;;;;;;;9.75;95.01;94250.69;5051844;28;1611;-55
2023/04/26 04:44:52;;;;;;;;;;;;;;;9.79;95.47;94257.38;5056404;28;1304;-54
2023/04/26 04:47:18;;;;;;;;;;;;;;;9.73;95.84;94266.06;5056606;28;970;-54
2023/04/26 04:49:44;;;;;;;;;;;;;;;9.64;95.02;94261.81;5056693;28;977;-54
2023/04/26 04:52:10;;;;;;;;;;;;;;;9.58;94.89;94261.50;5056312;28;1034;-55
2023/04/26 04:54:36;;;;;;;;;;;;;;;9.61;95.52;94267.50;5056167;28;1977;-55
2023/04/26 04:57:02;;;;;;;;;;;;;;;9.73;95.23;94274.06;5056233;28;1210;-56
2023/04/26 04:59:29;;;;;;;;;;;;;;;9.75;94.35;94277.38;5056061;28;978;-57
2023/04/26 05:01:55;;;;;;;;;;;;;;;9.65;94.88;94266.94;5056239;28;958;-55
2023/04/26 05:04:21;;;;;;;;;;;;;;;9.75;94.60;94266.72;5056180;28;957;-55
2023/04/26 05:06:47;;;;;;;;;;;;;;;9.85;93.54;94270.00;5056204;28;997;-56
2023/04/26 05:09:13;;;;;;;;;;;;;;;9.96;94.15;94268.75;5056187;28;1091;-57
2023/04/26 05:11:39;;;;;;;;;;;;;;;10.06;92.75;94257.81;5055982;28;1144;-56
2023/04/26 05:14:05;;;;;;;;;;;;;;;10.10;92.66;94267.13;5055798;28;1906;-55
2023/04/26 05:16:32;;;;;;;;;;;;;;;10.09;93.07;94258.31;5055923;28;1048;-57
2023/04/26 05:18:58;;;;;;;;;;;;;;;10.09;93.10;94270.81;5055790;28;1085;-57
2023/04/26 05:21:24;;;;;;;;;;;;;;;10.05;93.21;94270.31;5055732;28;1891;-54
2023/04/26 05:23:50;;;;;;;;;;;;;;;10.07;91.60;94273.69;5054717;28;1010;-55
2023/04/26 05:26:16;;;;;;;;;;;;;;;9.97;93.10;94273.06;5055898;28;991;-55
2023/04/26 05:28:42;;;;;;;;;;;;;;;9.80;91.74;94275.03;5055508;28;1033;-55
2023/04/26 05:31:08;;;;;;;;;;;;;;;9.92;91.95;94272.75;5055498;28;1896;-54
2023/04/26 05:33:34;;;;;;;;;;;;;;;9.89;92.11;94273.16;5055808;28;949;-54
2023/04/26 05:36:01;;;;;;;;;;;;;;;9.93;92.82;94280.59;5055572;28;1906;-54
2023/04/26 05:38:27;;;;;;;;;;;;;;;9.96;93.94;94274.91;5055423;28;1055;-55
2023/04/26 05:40:53;;;;;;;;;;;;;;;9.95;92.74;94283.09;5055020;28;1542;-54
2023/04/26 05:43:20;;;;;;;;;;;;;;;10.01;92.31;94285.06;5055239;28;1639;-55
2023/04/26 05:45:53;;;;;;;;;;;;;;;10.07;92.98;94286.19;5055530;28;964;-54
2023/04/26 05:48:23;;;;;;;;;;;;;;;10.16;93.19;94291.28;5055451;28;1063;-54
2023/04/26 05:50:49;;;;;;;;;;;;;;;10.21;92.31;94295.28;5055188;28;1030;-54
2023/04/26 05:53:16;;;;;;;;;;;;;;;10.11;93.71;94290.16;5055192;28;1055;-54
2023/04/26 05:55:42;;;;;;;;;;;;;;;10.07;92.96;94289.69;5053825;28;2013;-54
2023/04/26 05:58:08;;;;;;;;;;;;;;;10.13;92.42;94297.00;5055164;28;1093;-54
2023/04/26 06:00:35;;;;;;;;;;;;;;;10.09;93.05;94292.16;5055065;28;1048;-54
2023/04/26 06:03:01;;;;;;;;;;;;;;;10.13;92.99;94293.47;5054934;28;1085;-54
2023/04/26 06:05:28;;;;;;;;;;;;;;;10.14;92.92;94297.81;5055137;28;978;-54
2023/04/26 06:07:54;;;;;;;;;;;;;;;10.06;91.79;94293.38;5054874;28;981;-54
2023/04/26 06:10:20;;;;;;;;;;;;;;;10.03;91.10;94301.72;5054945;28;1056;-51
2023/04/26 06:12:46;;;;;;;;;;;;;;;10.07;92.53;94291.50;5054701;28;995;-54
2023/04/26 06:15:12;;;;;;;;;;;;;;;10.02;92.47;94300.06;5054872;28;1910;-51
2023/04/26 06:17:41;;;;;;;;;;;;;;;10.02;93.67;94307.28;5054775;28;1017;-52
2023/04/26 06:20:11;;;;;;;;;;;;;;;10.10;92.54;94299.19;5054803;28;1288;-52
2023/04/26 06:22:37;;;;;;;;;;;;;;;10.23;93.39;94304.75;5054693;28;1080;-52
2023/04/26 06:25:03;;;;;;;;;;;;;;;10.20;93.94;94299.75;5054574;28;1295;-51
2023/04/26 06:27:29;;;;;;;;;;;;;;;10.30;94.22;94305.72;5054417;28;1030;-52
2023/04/26 06:29:56;;;;;;;;;;;;;;;10.38;90.36;94306.66;5054433;28;1077;-52
2023/04/26 06:32:22;;;;;;;;;;;;;;;10.35;90.81;94305.19;5054474;28;957;-52
2023/04/26 06:34:48;;;;;;;;;;;;;;;10.27;91.35;94311.38;5053470;28;1906;-52
2023/04/26 06:37:15;;;;;;;;;;;;;;;10.14;91.65;94303.16;5054312;28;1060;-51
2023/04/26 06:39:41;;;;;;;;;;;;;;;10.10;94.11;94310.69;5054252;28;1053;-52
2023/04/26 06:42:07;;;;;;;;;;;;;;;10.08;93.21;94304.69;5054414;28;1613;-52
2023/04/26 06:44:33;;;;;;;;;;;;;;;10.16;93.23;94317.97;5053920;28;1161;-52
2023/04/26 06:46:59;;;;;;;;;;;;;;;10.05;92.97;94317.56;5054205;28;1291;-52
2023/04/26 06:49:25;;;;;;;;;;;;;;;10.05;93.53;94322.91;5054349;28;1004;-52
2023/04/26 06:51:51;;;;;;;;;;;;;;;10.05;94.62;94320.25;5053112;28;1013;-51
2023/04/26 06:54:18;;;;;;;;;;;;;;;10.22;95.92;94324.44;5053892;28;1999;-52
2023/04/26 06:56:44;;;;;;;;;;;;;;;10.36;92.43;94330.91;5054260;28;1016;-52
2023/04/26 06:59:10;;;;;;;;;;;;;;;10.24;92.45;94326.94;5052724;28;1033;-51
2023/04/26 07:01:37;;;;;;;;;;;;;;;10.21;93.09;94330.81;5053832;28;1129;-51
2023/04/26 07:04:06;;;;;;;;;;;;;;;10.29;92.29;94340.59;5053881;28;1227;-51
2023/04/26 07:06:32;;;;;;;;;;;;;;;10.27;91.29;94337.28;5054041;28;1044;-51
2023/04/26 07:08:59;;;;;;;;;;;;;;;10.39;94.08;94343.88;5053670;28;964;-51
2023/04/26 07:11:25;;;;;;;;;;;;;;;10.52;92.88;94345.97;5053668;28;1088;-52
2023/04/26 07:13:51;;;;;;;;;;;;;;;10.60;92.21;94347.72;5053980;28;1883;-51
2023/04/26 07:16:17;;;;;;;;;;;;;;;10.66;93.01;94347.00;5053682;28;967;-51
2023/04/26 07:18:44;;;;;;;;;;;;;;;10.67;91.25;94354.00;5053895;28;1013;-51
2023/04/26 07:21:10;;;;;;;;;;;;;;;10.64;93.35;94359.72;5053681;28;1025;-52
2023/04/26 07:23:36;;;;;;;;;;;;;;;10.58;92.19;94357.78;5053513;28;1069;-51
2023/04/26 07:26:03;;;;;;;;;;;;;;;10.67;92.56;94367.38;5053483;28;1046;-51
2023/04/26 07:28:30;;;;;;;;;;;;;;;10.66;91.72;94363.03;5053602;28;977;-52
2023/04/26 07:30:57;;;;;;;;;;;;;;;10.83;92.82;94369.06;5053655;28;1020;-52
2023/04/26 07:33:23;;;;;;;;;;;;;;;11.01;92.61;94377.59;5053361;28;1049;-51
2023/04/26 07:35:55;;;;;;;;;;;;;;;11.02;91.87;94376.59;5053374;28;1906;-51
2023/04/26 07:38:21;;;;;;;;;;;;;;;11.00;91.77;94383.94;5053326;28;1104;-51
2023/04/26 07:40:47;;;;;;;;;;;;;;;11.00;91.90;94391.97;5053270;28;1111;-52
2023/04/26 07:43:14;;;;;;;;;;;;;;;11.00;91.63;94393.81;5053090;28;1086;-51
2023/04/26 07:45:40;;;;;;;;;;;;;;;10.96;93.18;94396.00;5053554;28;1014;-52
2023/04/26 07:48:06;;;;;;;;;;;;;;;11.13;92.81;94397.53;5053334;28;1033;-52
2023/04/26 07:50:32;;;;;;;;;;;;;;;11.30;91.00;94398.16;5053368;28;1024;-51
2023/04/26 07:52:58;;;;;;;;;;;;;;;11.51;86.27;94400.13;5039176;28;2928;-51
2023/04/26 07:55:25;;;;;;;;;;;;;;;11.46;85.26;94394.50;5033054;28;1981;-51
2023/04/26 07:57:51;;;;;;;;;;;;;;;11.57;85.62;94397.72;5033442;28;1015;-51
2023/04/26 08:00:17;;;;;;;;;;;;;;;11.65;84.51;94400.31;5033409;28;1009;-51
2023/04/26 08:02:46;;;;;;;;;;;;;;;11.69;84.70;94410.44;5035014;28;981;-51
2023/04/26 08:05:13;;;;;;;;;;;;;;;11.75;85.14;94400.84;5037224;28;1021;-51
2023/04/26 08:07:39;;;;;;;;;;;;;;;11.71;85.41;94396.88;5037119;28;1037;-51
2023/04/26 08:10:06;;;;;;;;;;;;;;;11.71;85.32;94389.66;5037566;28;1040;-51
2023/04/26 08:12:32;;;;;;;;;;;;;;;11.77;84.10;94390.78;5037353;28;1056;-51
2023/04/26 08:15:03;;;;;;;;;;;;;;;11.85;81.10;94392.50;5036996;28;1913;-51
2023/04/26 08:17:30;;;;;;;;;;;;;;;11.93;81.41;94391.59;5037017;28;1867;-52
2023/04/26 08:19:57;;;;;;;;;;;;;;;12.04;82.43;94396.47;5037252;28;1036;-51
2023/04/26 08:22:23;;;;;;;;;;;;;;;12.22;82.74;94390.72;5037037;28;953;-52
2023/04/26 08:24:50;;;;;;;;;;;;;;;12.35;79.70;94384.63;5037233;28;969;-52
2023/04/26 08:27:16;;;;;;;;;;;;;;;12.50;80.21;94380.91;5036956;28;968;-52
2023/04/26 08:29:42;;;;;;;;;;;;;;;12.61;81.15;94376.84;5036937;28;1033;-52
2023/04/26 08:32:08;;;;;;;;;;;;;;;12.75;80.17;94374.28;5035552;28;1057;-52
2023/04/26 08:34:34;;;;;;;;;;;;;;;12.88;79.30;94377.94;5035408;28;1906;-52
2023/04/26 08:37:00;;;;;;;;;;;;;;;13.07;77.42;94378.25;5036922;28;973;-52
2023/04/26 08:39:26;;;;;;;;;;;;;;;13.34;76.68;94378.50;5036786;28;970;-52
2023/04/26 08:41:56;;;;;;;;;;;;;;;13.70;73.49;94375.59;5047757;28;1332;-52
2023/04/26 08:44:23;;;;;;;;;;;;;;;13.86;76.17;94379.78;5056351;28;1077;-51
2023/04/26 08:46:55;;;;;;;;;;;;;;;13.84;77.29;94379.97;5056447;28;1038;-53
2023/04/26 08:49:26;;;;;;;;;;;;;;;13.91;74.82;94387.25;5056561;28;1028;-51
2023/04/26 08:51:54;;;;;;;;;;;;;;;13.74;71.25;94389.47;5056545;28;1023;-52
2023/04/26 08:54:21;;;;;;;;;;;;;;;13.52;73.01;94386.03;5056410;28;1967;-52
2023/04/26 08:56:47;;;;;;;;;;;;;;;13.29;73.28;94389.78;5056470;28;1024;-52
2023/04/26 08:59:14;;;;;;;;;;;;;;;13.21;74.22;94393.44;5056234;28;1024;-51
2023/04/26 09:01:42;;;;;;;;;;;;;;;12.93;76.04;94393.44;5056155;28;1081;-52
2023/04/26 09:04:08;;;;;;;;;;;;;;;12.69;75.53;94397.34;5056073;28;1025;-52
2023/04/26 09:06:34;;;;;;;;;;;;;;;12.31;75.32;94397.59;5056167;28;969;-52
2023/04/26 09:09:03;;;;;;;;;;;;;;;12.23;76.14;94392.34;5056296;28;1036;-51
2023/04/26 09:11:29;;;;;;;;;;;;;;;12.08;78.21;94393.25;5056016;28;976;-51
2023/04/26 09:13:56;;;;;;;;;;;;;;;12.22;75.33;94388.84;5054832;28;1985;-51
2023/04/26 09:16:37;;;;;;;;;;;;;;;12.27;75.23;94390.97;5055742;28;1100;-51
2023/04/26 09:19:03;;;;;;;;;;;;;;;12.42;74.54;94390.91;5055856;28;1201;-51
2023/04/26 09:21:30;;;;;;;;;;;;;;;12.59;74.52;94386.13;5055777;28;1053;-51
2023/04/26 09:24:03;;;;;;;;;;;;;;;12.78;73.70;94381.97;5056103;28;1089;-52
2023/04/26 09:26:29;;;;;;;;;;;;;;;12.81;74.12;94381.59;5055961;28;954;-51
2023/04/26 09:29:15;;;;;;;;;;;;;;;12.78;72.32;94387.31;5055918;28;1022;-52
2023/04/26 09:31:45;;;;;;;;;;;;;;;12.95;72.94;94379.81;5055942;28;1001;-50
2023/04/26 09:34:12;;;;;;;;;;;;;;;13.09;73.10;94376.22;5055146;28;1906;-50
2023/04/26 09:36:47;;;;;;;;;;;;;;;13.28;72.42;94374.72;5055500;28;1205;-51
2023/04/26 09:39:14;;;;;;;;;;;;;;;13.47;72.17;94368.66;5055120;28;1889;-51
2023/04/26 09:41:44;;;;;;;;;;;;;;;13.54;72.61;94368.69;5055351;28;1629;-51
2023/04/26 09:44:30;;;;;;;;;;;;;;;13.52;71.57;94367.22;5055411;28;1279;-51
2023/04/26 09:47:17;;;;;;;;;;;;;;;13.39;72.67;94368.81;5055619;28;965;-51
2023/04/26 09:49:50;;;;;;;;;;;;;;;13.43;72.24;94367.41;5055149;28;1532;-52
2023/04/26 09:52:17;;;;;;;;;;;;;;;13.38;70.15;94364.47;5055536;28;965;-50
2023/04/26 09:54:53;;;;;;;;;;;;;;;13.43;71.16;94356.66;5055399;28;1906;-51
2023/04/26 09:57:21;;;;;;;;;;;;;;;13.60;69.85;94351.78;5055259;28;1024;-51
2023/04/26 09:59:50;;;;;;;;;;;;;;;13.75;69.58;94353.50;5055227;28;1048;-51
2023/04/26 10:02:24;;;;;;;;;;;;;;;13.74;69.08;94349.16;5055028;28;1075;-51
2023/04/26 10:04:51;;;;;;;;;;;;;;;13.59;66.90;94349.28;5054931;28;1037;-51
2023/04/26 10:07:20;;;;;;;;;;;;;;;13.42;70.32;94332.69;5054925;28;1872;-51
2023/04/26 10:09:47;;;;;;;;;;;;;;;13.31;71.13;94343.97;5054934;28;1061;-51
2023/04/26 10:12:14;;;;;;;;;;;;;;;13.24;73.48;94358.16;5055121;28;1088;-51
2023/04/26 10:14:40;;;;;;;;;;;;;;;13.06;71.06;94349.78;5054728;28;1910;-51
2023/04/26 10:17:06;;;;;;;;;;;;;;;12.99;71.62;94343.53;5054786;28;1311;-51
2023/04/26 10:19:33;;;;;;;;;;;;;;;13.06;67.43;94350.59;5054850;28;1057;-51
2023/04/26 10:22:03;;;;;;;;;;;;;;;13.07;66.09;94352.28;5054645;28;1096;-51
2023/04/26 10:24:29;;;;;;;;;;;;;;;13.08;65.84;94345.03;5054577;28;1050;-52
2023/04/26 10:26:58;;;;;;;;;;;;;;;13.19;66.33;94349.03;5054694;28;1014;-51
2023/04/26 10:29:25;;;;;;;;;;;;;;;13.36;66.04;94344.22;5054625;28;1040;-51
2023/04/26 10:32:03;;;;;;;;;;;;;;;13.48;64.65;94348.81;5054773;28;973;-52
2023/04/26 10:34:32;;;;;;;;;;;;;;;13.54;64.33;94341.00;5054498;28;1987;-51
2023/04/26 10:37:07;;;;;;;;;;;;;;;13.50;63.03;94347.81;5054721;28;1017;-52
2023/04/26 10:39:33;;;;;;;;;;;;;;;13.46;62.64;94353.56;5054387;28;1017;-52
2023/04/26 10:42:21;;;;;;;;;;;;;;;13.55;62.00;94345.34;5054238;28;1347;-52
2023/04/26 10:44:48;;;;;;;;;;;;;;;13.41;61.70;94347.97;5054153;28;1350;-53
2023/04/26 10:47:30;;;;;;;;;;;;;;;13.54;61.50;94351.75;5054276;28;969;-52
2023/04/26 10:50:03;;;;;;;;;;;;;;;13.61;62.70;94355.28;5054136;28;981;-52
2023/04/26 10:52:29;;;;;;;;;;;;;;;13.70;61.09;94361.31;5054236;28;985;-52
2023/04/26 10:54:58;;;;;;;;;;;;;;;13.62;61.70;94348.88;5053894;28;1985;-52
2023/04/26 10:57:43;;;;;;;;;;;;;;;13.65;59.82;94353.88;5053949;28;1275;-52
2023/04/26 11:00:13;;;;;;;;;;;;;;;13.50;59.55;94353.16;5054097;28;988;-51
2023/04/26 11:02:43;;;;;;;;;;;;;;;13.49;60.39;94355.03;5053971;28;1046;-51
2023/04/26 11:05:09;;;;;;;;;;;;;;;13.61;59.98;94360.66;5053807;28;1036;-51
2023/04/26 11:07:38;;;;;;;;;;;;;;;13.70;60.47;94361.31;5053895;28;1583;-52
2023/04/26 11:10:11;;;;;;;;;;;;;;;13.72;61.98;94362.78;5054051;28;1032;-51
2023/04/26 11:12:40;;;;;;;;;;;;;;;13.75;62.50;94357.00;5053964;28;1029;-51
2023/04/26 11:15:07;;;;;;;;;;;;;;;13.79;62.22;94360.13;5053644;28;1906;-50
2023/04/26 11:17:36;;;;;;;;;;;;;;;13.74;61.46;94363.41;5053650;28;966;-51
2023/04/26 11:20:09;;;;;;;;;;;;;;;13.75;61.58;94362.38;5053569;28;1014;-50
2023/04/26 11:22:38;;;;;;;;;;;;;;;13.78;61.96;94366.53;5053736;28;1457;-51
2023/04/26 11:25:04;;;;;;;;;;;;;;;13.77;62.16;94370.22;5053657;28;905;-50
2023/04/26 11:27:30;;;;;;;;;;;;;;;13.85;60.27;94365.53;5053505;28;1105;-51
2023/04/26 11:29:56;;;;;;;;;;;;;;;13.92;59.70;94367.41;5053809;28;1018;-51
2023/04/26 11:32:22;;;;;;;;;;;;;;;14.15;59.17;94362.53;5053150;28;1052;-51
2023/04/26 11:34:50;;;;;;;;;;;;;;;14.44;58.67;94368.59;5053240;28;1902;-51
2023/04/26 11:37:16;;;;;;;;;;;;;;;14.52;57.59;94368.41;5052992;28;1024;-51
2023/04/26 11:39:44;;;;;;;;;;;;;;;14.30;57.92;94366.91;5053357;28;1069;-51
2023/04/26 11:42:10;;;;;;;;;;;;;;;14.17;58.41;94373.91;5053208;28;1343;-52
2023/04/26 11:44:39;;;;;;;;;;;;;;;14.11;60.25;94368.50;5053079;28;1089;-51
2023/04/26 11:47:06;;;;;;;;;;;;;;;13.92;60.61;94362.84;5053218;28;1108;-51
2023/04/26 11:49:32;;;;;;;;;;;;;;;13.96;59.97;94357.91;5053173;28;1573;-51
2023/04/26 11:51:59;;;;;;;;;;;;;;;14.04;59.35;94360.44;5053484;28;1009;-52
2023/04/26 11:54:32;;;;;;;;;;;;;;;14.11;60.08;94361.28;5053013;28;1997;-51
2023/04/26 11:56:58;;;;;;;;;;;;;;;14.11;59.16;94368.50;5052085;28;1048;-51
2023/04/26 11:59:25;;;;;;;;;;;;;;;13.93;60.72;94366.41;5053054;28;1037;-52
2023/04/26 12:01:52;;;;;;;;;;;;;;;13.88;62.94;94379.59;5053414;28;1013;-52
2023/04/26 12:04:18;;;;;;;;;;;;;;;13.79;59.44;94398.59;5053249;28;1033;-51
2023/04/26 12:06:45;;;;;;;;;;;;;;;13.48;61.44;94393.63;5051898;28;1203;-51
2023/04/26 12:09:11;;;;;;;;;;;;;;;13.30;63.31;94391.47;5052942;28;1655;-51
2023/04/26 12:11:38;;;;;;;;;;;;;;;13.21;65.13;94396.13;5053015;28;1070;-52
2023/04/26 12:14:06;;;;;;;;;;;;;;;13.24;64.56;94401.13;5052943;28;1983;-50
2023/04/26 12:16:34;;;;;;;;;;;;;;;13.09;65.65;94403.88;5052904;28;1108;-51
2023/04/26 12:19:04;;;;;;;;;;;;;;;12.92;66.78;94407.88;5052984;28;1056;-51
2023/04/26 12:21:38;;;;;;;;;;;;;;;12.89;68.00;94419.81;5052987;28;1097;-51
2023/04/26 12:24:05;;;;;;;;;;;;;;;12.74;68.07;94420.91;5052943;28;1124;-51
2023/04/26 12:26:43;;;;;;;;;;;;;;;12.69;68.87;94419.66;5052796;28;1041;-51
2023/04/26 12:29:09;;;;;;;;;;;;;;;12.58;68.30;94419.34;5052881;28;1224;-51
2023/04/26 12:31:35;;;;;;;;;;;;;;;12.58;68.85;94411.28;5053016;28;1056;-51
2023/04/26 12:34:01;;;;;;;;;;;;;;;12.70;66.92;94407.06;5052619;28;1984;-51
2023/04/26 12:36:27;;;;;;;;;;;;;;;12.75;68.12;94406.47;5052793;28;1101;-51
2023/04/26 12:38:55;;;;;;;;;;;;;;;12.96;69.37;94401.09;5051702;28;986;-51
2023/04/26 12:41:21;;;;;;;;;;;;;;;13.18;68.94;94399.19;5052583;28;1550;-51
2023/04/26 12:43:48;;;;;;;;;;;;;;;13.38;66.71;94402.06;5052762;28;1140;-51
2023/04/26 12:46:14;;;;;;;;;;;;;;;13.22;66.98;94402.31;5052936;28;1055;-51
2023/04/26 12:48:40;;;;;;;;;;;;;;;13.23;66.08;94399.44;5053922;28;1188;-51
2023/04/26 12:51:06;;;;;;;;;;;;;;;13.26;66.96;94396.38;5056383;28;1283;-51
2023/04/26 12:53:32;;;;;;;;;;;;;;;13.34;65.14;94395.44;5056377;28;1031;-51
2023/04/26 12:55:58;;;;;;;;;;;;;;;13.27;65.01;94389.16;5056240;28;1987;-51
2023/04/26 12:58:25;;;;;;;;;;;;;;;13.36;65.02;94388.00;5056164;28;1129;-51
2023/04/26 13:00:52;;;;;;;;;;;;;;;13.25;64.19;94396.56;5056239;28;1155;-51
2023/04/26 13:03:18;;;;;;;;;;;;;;;13.19;62.45;94400.03;5056221;28;1044;-51
2023/04/26 13:05:44;;;;;;;;;;;;;;;13.20;62.51;94394.47;5056488;28;1016;-51